createdAt,value
2018-03-29T00:02:11.936Z,83.20
2018-03-29T00:56:33.974Z,82.10
2018-03-29T00:59:00.870Z,78.67
2018-03-29T01:01:27.669Z,97.60
2018-03-29T01:03:54.515Z,85.07
2018-03-29T01:06:22.212Z,85.87
2018-03-29T01:08:49.780Z,78.90
2018-03-29T01:11:16.576Z,86.20
2018-03-29T01:13:43.383Z,86.20
2018-03-29T01:16:10.212Z,89.13
2018-03-29T01:18:37.026Z,86.03
2018-03-29T01:21:03.914Z,82.77
2018-03-29T01:23:30.752Z,88.23
2018-03-29T01:25:57.613Z,81.20
2018-03-29T01:28:24.421Z,78.27
2018-03-29T01:30:51.343Z,84.23
2018-03-29T01:33:18.124Z,86.67
2018-03-29T01:35:44.930Z,79.10
2018-03-29T01:38:11.864Z,72.20
2018-03-29T01:40:38.702Z,81.17
2018-03-29T01:43:05.538Z,81.30
2018-03-29T01:45:32.394Z,81.57
2018-03-29T01:47:59.252Z,87.40
2018-03-29T01:50:26.110Z,81.47
2018-03-29T01:52:52.968Z,77.27
2018-03-29T01:55:19.846Z,86.87
2018-03-29T01:57:46.681Z,77.50
2018-03-29T02:00:13.498Z,76.10
2018-03-29T02:02:40.336Z,71.27
2018-03-29T02:05:07.186Z,79.33
2018-03-29T02:07:34.005Z,78.33
2018-03-29T02:10:00.858Z,75.83
2018-03-29T02:12:27.665Z,73.63
2018-03-29T02:14:54.511Z,74.37
2018-03-29T02:17:21.393Z,73.80
2018-03-29T02:19:48.242Z,72.07
2018-03-29T02:22:15.111Z,69.03
2018-03-29T02:24:41.967Z,71.80
2018-03-29T02:27:08.880Z,72.27
2018-03-29T02:29:35.769Z,65.23
2018-03-29T02:32:02.564Z,63.77
2018-03-29T02:34:29.393Z,65.17
2018-03-29T02:36:56.205Z,64.13
2018-03-29T02:39:23.117Z,63.07
2018-03-29T02:41:49.991Z,56.17
2018-03-29T02:44:16.862Z,58.20
2018-03-29T02:46:43.654Z,61.63
2018-03-29T02:49:10.519Z,56.97
2018-03-29T02:51:37.385Z,48.73
2018-03-29T02:54:04.187Z,50.30
2018-03-29T02:56:31.021Z,54.97
2018-03-29T02:58:57.863Z,49.80
2018-03-29T03:01:24.667Z,57.53
2018-03-29T03:03:51.483Z,51.93
2018-03-29T03:06:18.302Z,54.50
2018-03-29T03:08:45.070Z,54.00
2018-03-29T03:11:11.991Z,57.93
2018-03-29T03:13:38.826Z,58.87
2018-03-29T03:16:05.630Z,47.07
2018-03-29T03:18:32.450Z,49.50
2018-03-29T03:20:59.210Z,48.80
2018-03-29T03:23:26.018Z,48.57
2018-03-29T03:25:52.946Z,43.17
2018-03-29T03:28:19.851Z,49.03
2018-03-29T03:30:46.835Z,46.47
2018-03-29T03:33:13.771Z,42.40
2018-03-29T03:35:40.585Z,44.10
2018-03-29T03:38:07.532Z,44.03
2018-03-29T03:40:34.298Z,42.97
2018-03-29T03:43:01.192Z,43.20
2018-03-29T03:45:28.038Z,40.17
2018-03-29T03:47:54.875Z,39.80
2018-03-29T03:50:21.792Z,43.57
2018-03-29T03:52:48.565Z,36.90
2018-03-29T03:55:15.369Z,38.87
2018-03-29T03:57:42.626Z,39.67
2018-03-29T04:00:09.433Z,37.40
2018-03-29T04:02:36.309Z,39.63
2018-03-29T04:05:03.086Z,36.27
2018-03-29T04:07:29.885Z,34.30
2018-03-29T04:09:56.693Z,37.07
2018-03-29T04:12:23.478Z,34.27
2018-03-29T04:14:50.258Z,33.43
2018-03-29T04:17:17.032Z,35.17
2018-03-29T04:19:43.861Z,35.10
2018-03-29T04:22:10.658Z,36.33
2018-03-29T04:24:37.486Z,31.93
2018-03-29T04:27:04.285Z,33.57
2018-03-29T04:29:31.120Z,37.57
2018-03-29T04:31:57.997Z,34.00
2018-03-29T04:34:24.810Z,36.70
2018-03-29T04:36:51.614Z,33.73
2018-03-29T04:39:18.416Z,32.67
2018-03-29T04:41:45.182Z,35.80
2018-03-29T04:44:11.959Z,35.33
2018-03-29T04:46:38.763Z,32.50
2018-03-29T04:49:05.801Z,34.17
2018-03-29T04:51:32.631Z,33.13
2018-03-29T04:53:59.428Z,34.97
2018-03-29T04:56:26.277Z,28.20
2018-03-29T04:58:53.099Z,31.20
2018-03-29T05:01:19.985Z,28.07
2018-03-29T05:03:46.875Z,31.03
2018-03-29T05:06:13.947Z,29.90
2018-03-29T05:08:40.971Z,28.27
2018-03-29T05:11:07.723Z,32.00
2018-03-29T05:13:34.533Z,32.07
2018-03-29T05:16:01.394Z,34.17
2018-03-29T05:18:28.215Z,33.63
2018-03-29T05:20:55.062Z,34.07
2018-03-29T05:23:21.907Z,39.10
2018-03-29T05:25:48.756Z,28.57
2018-03-29T05:28:15.567Z,33.33
2018-03-29T05:30:42.389Z,27.37
2018-03-29T05:33:09.195Z,36.07
2018-03-29T05:35:36.001Z,36.70
2018-03-29T05:38:02.965Z,25.57
2018-03-29T05:40:29.763Z,19.50
2018-03-29T05:42:56.592Z,12.17
2018-03-29T05:45:23.478Z,10.57
2018-03-29T05:47:50.258Z,14.03
2018-03-29T05:50:17.126Z,17.13
2018-03-29T05:52:43.929Z,13.10
2018-03-29T05:55:10.760Z,11.70
2018-03-29T05:57:37.628Z,19.33
2018-03-29T06:00:05.470Z,10.50
2018-03-29T06:02:33.253Z,17.00
2018-03-29T06:05:00.093Z,15.67
2018-03-29T06:07:26.935Z,12.23
2018-03-29T06:09:53.881Z,11.97
2018-03-29T06:12:20.727Z,14.17
2018-03-29T06:14:47.560Z,11.43
2018-03-29T06:17:20.161Z,15.93
2018-03-29T06:19:47.007Z,12.50
2018-03-29T06:22:13.841Z,14.03
2018-03-29T06:24:40.606Z,12.43
2018-03-29T06:27:07.498Z,12.90
2018-03-29T06:29:34.352Z,13.10
2018-03-29T06:32:01.201Z,11.73
2018-03-29T06:34:28.157Z,11.63
2018-03-29T06:36:54.993Z,10.10
2018-03-29T06:39:21.827Z,16.77
2018-03-29T06:41:48.678Z,8.73
2018-03-29T06:44:16.339Z,11.57
2018-03-29T06:46:43.100Z,14.63
2018-03-29T06:49:10.511Z,10.30
2018-03-29T06:51:37.342Z,13.17
2018-03-29T06:54:04.978Z,13.57
2018-03-29T06:56:31.768Z,14.17
2018-03-29T06:58:58.870Z,11.80
2018-03-29T07:01:25.778Z,14.77
2018-03-29T07:03:52.568Z,17.47
2018-03-29T07:06:19.382Z,15.13
2018-03-29T07:08:46.179Z,13.27
2018-03-29T07:11:13.078Z,9.40
2018-03-29T07:13:39.862Z,12.50
2018-03-29T07:16:06.718Z,13.80
2018-03-29T07:18:33.599Z,20.70
2018-03-29T07:21:00.462Z,17.00
2018-03-29T07:26:09.260Z,18.67
2018-03-29T07:28:36.138Z,15.93
2018-03-29T07:31:04.118Z,19.50
2018-03-29T07:33:31.068Z,18.43
2018-03-29T07:35:57.955Z,17.10
2018-03-29T07:38:24.847Z,13.43
2018-03-29T07:40:52.514Z,16.83
2018-03-29T07:43:19.365Z,15.10
2018-03-29T07:45:56.833Z,18.73
2018-03-29T07:48:23.709Z,18.00
2018-03-29T07:50:51.353Z,13.30
2018-03-29T07:53:18.178Z,15.50
2018-03-29T07:55:45.007Z,13.83
2018-03-29T07:58:11.745Z,13.70
2018-03-29T08:00:38.551Z,9.23
2018-03-29T08:03:05.349Z,10.63
2018-03-29T08:05:32.287Z,11.17
2018-03-29T08:08:01.392Z,11.20
2018-03-29T08:10:29.162Z,12.00
2018-03-29T08:12:56.105Z,19.10
2018-03-29T08:15:23.308Z,20.30
2018-03-29T08:20:22.763Z,17.40
2018-03-29T08:25:57.167Z,18.10
2018-03-29T08:28:25.121Z,20.10
2018-03-29T08:31:00.530Z,18.40
2018-03-29T08:33:29.238Z,13.17
2018-03-29T08:38:44.709Z,15.63
2018-03-29T08:41:11.824Z,12.40
2018-03-29T08:43:38.743Z,6.20
2018-03-29T08:46:06.398Z,10.53
2018-03-29T08:48:33.891Z,12.33
2018-03-29T08:51:01.067Z,9.07
2018-03-29T08:53:30.729Z,14.40
2018-03-29T08:56:01.016Z,11.90
2018-03-29T08:58:28.195Z,14.63
2018-03-29T09:00:55.041Z,13.17
2018-03-29T09:03:22.420Z,9.40
2018-03-29T09:05:49.437Z,8.90
2018-03-29T09:08:17.772Z,9.10
2018-03-29T09:10:46.329Z,13.03
2018-03-29T09:13:17.954Z,10.10
2018-03-29T09:15:51.688Z,8.00
2018-03-29T09:18:20.190Z,8.47
2018-03-29T09:20:51.470Z,10.77
2018-03-29T09:23:18.489Z,7.53
2018-03-29T09:25:46.490Z,11.93
2018-03-29T09:28:16.048Z,13.67
2018-03-29T09:30:46.752Z,15.53
2018-03-29T09:52:44.014Z,20.67
2018-03-29T09:55:10.857Z,5.30
2018-03-29T09:57:37.738Z,7.87
2018-03-29T10:00:04.583Z,5.90
2018-03-29T10:02:31.473Z,6.57
2018-03-29T10:05:03.271Z,3.63
2018-03-29T10:07:33.821Z,6.10
2018-03-29T10:10:00.967Z,5.27
2018-03-29T10:12:27.800Z,5.40
2018-03-29T10:14:54.581Z,5.40
2018-03-29T10:17:21.413Z,4.20
2018-03-29T10:19:48.202Z,5.23
2018-03-29T10:22:15.034Z,6.60
2018-03-29T10:24:41.891Z,6.30
2018-03-29T10:27:08.784Z,5.93
2018-03-29T10:29:35.590Z,4.63
2018-03-29T10:32:02.444Z,6.00
2018-03-29T10:34:30.062Z,8.27
2018-03-29T10:36:56.999Z,10.60
2018-03-29T10:39:25.504Z,7.90
2018-03-29T10:41:52.338Z,13.30
2018-03-29T10:44:19.185Z,16.00
2018-03-29T10:46:46.838Z,6.57
2018-03-29T10:49:13.689Z,8.70
2018-03-29T10:51:40.469Z,5.40
2018-03-29T10:54:07.313Z,3.00
2018-03-29T10:56:34.066Z,5.77
2018-03-29T10:59:00.884Z,4.33
2018-03-29T11:01:27.763Z,4.80
2018-03-29T11:03:54.530Z,11.97
2018-03-29T11:06:21.360Z,11.57
2018-03-29T11:08:48.165Z,7.77
2018-03-29T11:11:14.932Z,9.73
2018-03-29T11:13:41.729Z,8.90
2018-03-29T11:16:08.543Z,6.70
2018-03-29T11:18:35.368Z,5.30
2018-03-29T11:21:02.191Z,10.90
2018-03-29T11:23:29.062Z,5.27
2018-03-29T11:25:55.882Z,8.10
2018-03-29T11:28:22.806Z,4.80
2018-03-29T11:30:49.663Z,10.00
2018-03-29T11:33:16.483Z,6.63
2018-03-29T11:35:43.382Z,9.27
2018-03-29T11:38:10.254Z,7.03
2018-03-29T11:40:37.144Z,4.23
2018-03-29T11:43:03.994Z,4.50
2018-03-29T11:45:30.852Z,5.97
2018-03-29T11:47:57.704Z,3.83
2018-03-29T11:50:24.473Z,2.03
2018-03-29T11:52:51.298Z,1.87
2018-03-29T11:55:18.054Z,1.90
2018-03-29T11:57:44.833Z,5.10
2018-03-29T12:00:11.620Z,2.70
2018-03-29T12:02:38.423Z,2.60
2018-03-29T12:05:05.326Z,2.73
2018-03-29T12:07:32.140Z,4.60
2018-03-29T12:09:58.995Z,2.50
2018-03-29T12:12:25.761Z,3.60
2018-03-29T12:14:52.600Z,3.97
2018-03-29T12:17:19.396Z,4.00
2018-03-29T12:19:46.248Z,5.77
2018-03-29T12:22:13.099Z,4.20
2018-03-29T12:24:39.894Z,3.60
2018-03-29T12:27:06.665Z,9.97
2018-03-29T12:29:33.465Z,2.87
2018-03-29T12:32:00.316Z,2.50
2018-03-29T12:34:27.248Z,3.10
2018-03-29T12:36:54.004Z,2.20
2018-03-29T12:39:20.842Z,4.13
2018-03-29T12:41:47.751Z,5.23
2018-03-29T12:44:14.596Z,2.77
2018-03-29T12:46:41.479Z,3.33
2018-03-29T12:49:08.321Z,2.03
2018-03-29T12:51:35.124Z,1.73
2018-03-29T12:54:01.995Z,2.50
2018-03-29T12:56:34.819Z,1.67
2018-03-29T12:59:01.596Z,1.87
2018-03-29T13:01:28.394Z,1.17
2018-03-29T13:03:55.207Z,0.93
2018-03-29T13:06:21.953Z,1.90
2018-03-29T13:08:48.808Z,6.93
2018-03-29T13:11:15.604Z,0.70
2018-03-29T13:13:42.394Z,1.13
2018-03-29T13:16:09.266Z,1.67
2018-03-29T13:18:36.155Z,2.27
2018-03-29T13:21:02.945Z,6.63
2018-03-29T13:23:29.753Z,5.57
2018-03-29T13:25:56.560Z,8.57
2018-03-29T13:28:23.355Z,1.77
2018-03-29T13:30:50.207Z,1.50
2018-03-29T13:33:17.007Z,2.17
2018-03-29T13:35:43.838Z,2.10
2018-03-29T13:38:10.719Z,2.80
2018-03-29T13:40:37.555Z,3.77
2018-03-29T13:43:04.354Z,2.60
2018-03-29T13:45:31.654Z,2.60
2018-03-29T13:47:58.482Z,3.60
2018-03-29T13:50:25.443Z,3.30
2018-03-29T13:52:52.900Z,5.13
2018-03-29T13:55:20.566Z,2.97
2018-03-29T13:57:47.459Z,4.33
2018-03-29T14:00:14.338Z,2.93
2018-03-29T14:02:41.151Z,1.67
2018-03-29T14:05:07.938Z,4.50
2018-03-29T14:07:34.728Z,4.43
2018-03-29T14:10:01.557Z,2.83
2018-03-29T14:12:28.340Z,3.33
2018-03-29T14:14:55.183Z,2.60
2018-03-29T14:17:22.011Z,2.97
2018-03-29T14:19:48.826Z,3.83
2018-03-29T14:22:15.586Z,3.27
2018-03-29T14:24:42.465Z,3.87
2018-03-29T14:27:09.316Z,4.17
2018-03-29T14:29:36.150Z,3.87
2018-03-29T14:32:02.982Z,4.87
2018-03-29T14:34:29.758Z,3.47
2018-03-29T14:36:58.145Z,4.73
2018-03-29T14:39:24.951Z,4.53
2018-03-29T14:41:51.902Z,4.43
2018-03-29T14:44:18.744Z,5.47
2018-03-29T14:46:45.577Z,6.17
2018-03-29T14:49:12.386Z,7.30
2018-03-29T14:51:39.191Z,12.53
2018-03-29T14:54:07.032Z,5.50
2018-03-29T14:56:33.874Z,9.17
2018-03-29T14:59:00.685Z,9.40
2018-03-29T15:01:27.651Z,6.13
2018-03-29T15:03:54.508Z,8.37
2018-03-29T15:06:21.333Z,7.03
2018-03-29T15:08:48.218Z,8.13
2018-03-29T15:11:15.028Z,7.63
2018-03-29T15:13:41.912Z,6.43
2018-03-29T15:16:08.714Z,5.97
2018-03-29T15:18:35.620Z,10.40
2018-03-29T15:21:02.422Z,10.70
2018-03-29T15:23:29.357Z,19.87
2018-03-29T15:25:56.136Z,10.60
2018-03-29T15:28:22.983Z,5.57
2018-03-29T15:30:49.823Z,8.53
2018-03-29T15:33:16.633Z,14.70
2018-03-29T15:35:53.643Z,9.00
2018-03-29T15:38:20.685Z,13.17
2018-03-29T15:40:47.480Z,9.07
2018-03-29T15:43:14.299Z,12.13
2018-03-29T15:45:41.094Z,24.10
2018-03-29T15:48:07.917Z,11.77
2018-03-29T15:50:34.723Z,11.23
2018-03-29T15:53:01.811Z,12.27
2018-03-29T15:55:28.727Z,9.70
2018-03-29T15:57:55.506Z,13.47
2018-03-29T16:00:22.509Z,9.23
2018-03-29T16:02:49.442Z,10.23
2018-03-29T16:05:16.466Z,10.37
2018-03-29T16:07:43.352Z,8.73
2018-03-29T16:10:10.147Z,7.37
2018-03-29T16:12:37.132Z,9.30
2018-03-29T16:15:03.959Z,8.57
2018-03-29T16:17:30.822Z,8.57
2018-03-29T16:19:57.592Z,9.70
2018-03-29T16:22:24.385Z,9.77
2018-03-29T16:24:51.133Z,14.20
2018-03-29T16:27:17.954Z,16.55
2018-03-29T16:29:44.772Z,12.13
2018-03-29T16:32:11.557Z,13.17
2018-03-29T16:34:38.402Z,9.00
2018-03-29T16:37:05.176Z,11.70
2018-03-29T16:39:31.991Z,13.03
2018-03-29T16:41:58.803Z,7.73
2018-03-29T16:44:26.003Z,6.87
2018-03-29T16:46:52.826Z,8.17
2018-03-29T16:49:19.974Z,9.63
2018-03-29T16:51:46.928Z,9.87
2018-03-29T16:54:13.681Z,11.87
2018-03-29T16:56:40.460Z,12.03
2018-03-29T16:59:07.472Z,11.60
2018-03-29T17:01:34.254Z,16.80
2018-03-29T17:04:01.062Z,12.93
2018-03-29T17:06:27.835Z,8.00
2018-03-29T17:08:54.594Z,7.47
2018-03-29T17:11:21.392Z,9.13
2018-03-29T17:13:48.204Z,8.07
2018-03-29T17:16:15.151Z,7.30
2018-03-29T17:18:41.906Z,9.33
2018-03-29T17:21:08.697Z,9.00
2018-03-29T17:23:35.612Z,12.03
2018-03-29T17:26:02.378Z,14.27
2018-03-29T17:28:29.116Z,14.67
2018-03-29T17:30:56.072Z,16.90
2018-03-29T17:33:22.886Z,24.37
2018-03-29T17:35:49.724Z,16.53
2018-03-29T17:38:16.505Z,14.07
2018-03-29T17:40:43.333Z,15.33
2018-03-29T17:43:10.746Z,12.70
2018-03-29T17:45:37.538Z,11.80
2018-03-29T17:48:04.781Z,10.93
2018-03-29T17:50:31.582Z,10.77
2018-03-29T17:52:58.358Z,10.37
2018-03-29T17:55:25.153Z,10.53
2018-03-29T17:57:51.945Z,10.67
2018-03-29T18:00:18.735Z,13.40
2018-03-29T18:02:45.577Z,14.33
2018-03-29T18:05:15.502Z,14.93
2018-03-29T18:07:42.328Z,23.87
2018-03-29T18:10:09.098Z,17.77
2018-03-29T18:12:35.905Z,17.13
2018-03-29T18:15:02.807Z,21.00
2018-03-29T18:17:29.599Z,16.43
2018-03-29T18:19:56.389Z,17.63
2018-03-29T18:22:23.177Z,19.87
2018-03-29T18:24:49.930Z,28.47
2018-03-29T18:27:16.796Z,35.00
2018-03-29T18:29:43.593Z,37.27
2018-03-29T18:32:10.406Z,37.63
2018-03-29T18:34:37.215Z,36.20
2018-03-29T18:37:04.003Z,41.20
2018-03-29T18:39:30.826Z,45.03
2018-03-29T18:41:57.699Z,51.37
2018-03-29T18:44:24.524Z,56.40
2018-03-29T18:46:51.285Z,56.27
2018-03-29T18:49:18.136Z,43.83
2018-03-29T18:51:44.932Z,29.07
2018-03-29T18:54:11.800Z,31.47
2018-03-29T18:56:38.563Z,29.40
2018-03-29T18:59:05.344Z,38.93
2018-03-29T19:01:32.685Z,58.63
2018-03-29T19:20:14.598Z,55.23
2018-03-29T19:22:41.564Z,51.57
2018-03-29T19:25:08.521Z,43.90
2018-03-29T19:27:35.311Z,32.43
2018-03-29T19:30:02.245Z,27.67
2018-03-29T19:32:29.014Z,27.30
2018-03-29T19:34:55.969Z,26.17
2018-03-29T19:37:22.751Z,30.60
2018-03-29T19:39:49.873Z,25.00
2018-03-29T19:42:16.686Z,21.17
2018-03-29T19:44:43.486Z,19.63
2018-03-29T19:47:10.470Z,21.13
2018-03-29T19:49:37.322Z,21.10
2018-03-29T19:52:04.110Z,19.37
2018-03-29T19:54:30.918Z,19.43
2018-03-29T19:56:57.705Z,19.57
2018-03-29T19:59:24.469Z,17.13
2018-03-29T20:01:51.242Z,20.10
2018-03-29T20:04:18.013Z,20.57
2018-03-29T20:06:44.795Z,23.87
2018-03-29T20:09:11.578Z,17.73
2018-03-29T20:11:38.368Z,19.27
2018-03-29T20:14:05.121Z,22.00
2018-03-29T20:16:31.887Z,24.60
2018-03-29T20:19:06.619Z,24.27
2018-03-29T20:21:33.427Z,27.33
2018-03-29T20:24:00.333Z,37.07
2018-03-29T20:26:27.191Z,32.23
2018-03-29T20:28:54.833Z,32.20
2018-03-29T20:44:21.849Z,15.33
2018-03-29T20:46:48.685Z,18.43
2018-03-29T20:49:15.566Z,17.30
2018-03-29T20:51:42.382Z,21.70
2018-03-29T20:54:09.192Z,27.90
2018-03-29T20:56:36.058Z,28.83
2018-03-29T20:59:04.770Z,27.03
2018-03-29T21:01:31.526Z,28.70
2018-03-29T21:03:58.312Z,28.60
2018-03-29T21:06:25.509Z,40.97
2018-03-29T21:08:52.466Z,27.13
2018-03-29T21:11:19.238Z,31.80
2018-03-29T21:13:46.041Z,31.97
2018-03-29T21:16:12.860Z,26.83
2018-03-29T21:18:39.607Z,29.27
2018-03-29T21:21:06.380Z,29.87
2018-03-29T21:23:33.160Z,27.70
2018-03-29T21:25:59.936Z,26.37
2018-03-29T21:28:26.903Z,26.60
2018-03-29T21:30:53.713Z,29.50
2018-03-29T21:33:20.455Z,34.00
2018-03-29T21:35:47.312Z,28.27
2018-03-29T21:38:14.969Z,26.50
2018-03-29T21:40:41.730Z,36.77
2018-03-29T21:43:08.572Z,31.43
2018-03-29T21:45:35.265Z,35.20
2018-03-29T21:48:02.372Z,35.33
2018-03-29T21:50:29.122Z,30.13
2018-03-29T21:52:55.894Z,28.80
2018-03-29T21:55:22.766Z,35.77
2018-03-29T21:57:49.720Z,36.73
2018-03-29T22:00:16.686Z,32.40
2018-03-29T22:02:43.442Z,34.33
2018-03-29T22:05:10.198Z,39.23
2018-03-29T22:07:36.957Z,37.93
2018-03-29T22:10:03.764Z,43.13
2018-03-29T22:12:30.543Z,41.10
2018-03-29T22:14:57.323Z,47.30
2018-03-29T22:17:24.102Z,41.83
2018-03-29T22:19:50.905Z,47.93
2018-03-29T22:22:17.695Z,38.83
2018-03-29T22:24:44.471Z,35.87
2018-03-29T22:27:11.274Z,35.87
2018-03-29T22:29:38.178Z,32.60
2018-03-29T22:32:05.025Z,30.03
2018-03-29T22:34:32.129Z,28.10
2018-03-29T22:36:58.894Z,20.77
2018-03-29T22:39:25.683Z,23.83
2018-03-29T22:41:52.506Z,17.97
2018-03-29T22:44:19.287Z,15.57
2018-03-29T22:46:46.038Z,17.50
2018-03-29T22:49:12.846Z,19.53
2018-03-29T22:51:39.670Z,18.13
2018-03-29T22:54:06.459Z,17.83
2018-03-29T22:56:33.223Z,18.90
2018-03-29T22:58:59.998Z,15.60
2018-03-29T23:01:26.794Z,17.60
2018-03-29T23:03:53.604Z,18.23
2018-03-29T23:06:20.368Z,18.10
2018-03-29T23:08:47.134Z,16.90
2018-03-29T23:11:13.901Z,17.13
2018-03-29T23:13:40.674Z,23.23
2018-03-29T23:16:07.466Z,24.57
2018-03-29T23:18:34.257Z,21.27
2018-03-29T23:21:01.081Z,21.83
2018-03-29T23:23:27.816Z,16.90
2018-03-29T23:25:54.556Z,15.33
2018-03-29T23:28:21.362Z,16.20
2018-03-29T23:30:48.121Z,17.20
2018-03-29T23:33:14.884Z,14.87
2018-03-29T23:35:41.675Z,14.60
2018-03-29T23:38:08.430Z,14.20
2018-03-29T23:40:35.213Z,15.70
2018-03-29T23:43:02.013Z,15.70
2018-03-29T23:45:28.760Z,15.87
2018-03-29T23:47:55.525Z,12.77
2018-03-29T23:50:22.288Z,19.63
2018-03-29T23:52:49.030Z,16.03
2018-03-29T23:55:15.786Z,13.03
2018-03-29T23:57:42.523Z,11.63
